Albion, Iowa
Current Conditions -  °F | °C
As of 5:53 PM on Friday 31 Oct 2014 (Local Time) from KMIW Reporting Station
Clear Clear  
Wind Chill: 30°   Ceiling: Unl
Heat Index: 37°   Visibility: 10mi
Dew Point: 18°   Wind: 9mph
Humidity: 46%   Direction: 360°N
Pressure: 30.45"   Gusts: NA
Location:  42.11°N, 92.99°W
Report Text: KMIW 312253Z AUTO 36008KT 10SM CLR 03/M08 A3045 RMK AO2 SLP321 T00281078
Loading
Personal Weather Stations






























Interactive Weather Map
Tropical Storm Tracking
New forecast layout! Learn more

10-Day Weather Forecast

Advertisements
Track Severe Weather on mobile